createdAt,value
2023-10-26T00:01:23.142Z,7.51
2023-10-26T00:06:26.067Z,7.45
2023-10-26T00:11:31.659Z,7.47
2023-10-26T00:16:34.554Z,7.49
2023-10-26T00:21:37.785Z,7.51
2023-10-26T00:26:41.978Z,7.54
2023-10-26T00:31:44.861Z,7.55
2023-10-26T00:36:48.422Z,7.57
2023-10-26T00:41:52.456Z,7.62
2023-10-26T00:46:55.895Z,7.67
2023-10-26T00:52:03.712Z,7.63
2023-10-26T00:57:06.653Z,7.59
2023-10-26T01:02:09.621Z,7.59
2023-10-26T01:07:13.507Z,7.62
2023-10-26T01:12:18.009Z,7.68
2023-10-26T01:17:20.998Z,7.64
2023-10-26T01:22:31.007Z,7.61
2023-10-26T01:27:33.817Z,7.58
2023-10-26T01:32:36.661Z,7.59
2023-10-26T01:37:40.629Z,7.61
2023-10-26T01:42:43.509Z,7.65
2023-10-26T01:47:46.335Z,7.66
2023-10-26T01:52:49.192Z,7.67
2023-10-26T01:57:52.492Z,7.75
2023-10-26T02:02:57.450Z,7.81
2023-10-26T02:08:00.451Z,7.81
2023-10-26T02:13:05.754Z,7.83
2023-10-26T02:18:08.641Z,7.82
2023-10-26T02:23:11.533Z,7.78
2023-10-26T02:28:20.756Z,7.70
2023-10-26T02:33:23.633Z,7.66
2023-10-26T02:38:26.443Z,7.64
2023-10-26T02:43:29.206Z,7.61
2023-10-26T02:48:32.346Z,7.61
2023-10-26T02:53:35.249Z,7.62
2023-10-26T02:58:38.795Z,7.63
2023-10-26T03:03:41.736Z,7.66
2023-10-26T03:08:44.665Z,7.77
2023-10-26T03:13:47.529Z,7.83
2023-10-26T03:18:50.456Z,7.82
2023-10-26T03:23:56.248Z,7.79
2023-10-26T03:28:59.218Z,7.78
2023-10-26T03:34:02.024Z,7.79
2023-10-26T03:39:05.412Z,7.77
2023-10-26T03:44:09.559Z,7.76
2023-10-26T03:49:12.695Z,7.76
2023-10-26T03:54:15.534Z,7.75
2023-10-26T03:59:18.385Z,7.71
2023-10-26T04:04:21.236Z,7.65
2023-10-26T04:09:24.256Z,7.62
2023-10-26T04:14:30.353Z,7.66
2023-10-26T04:19:35.145Z,7.68
2023-10-26T04:24:38.641Z,7.60
2023-10-26T04:29:41.514Z,7.56
2023-10-26T04:34:47.514Z,7.55
2023-10-26T04:39:50.733Z,7.57
2023-10-26T04:44:53.991Z,7.62
2023-10-26T04:49:56.918Z,7.60
2023-10-26T04:54:59.757Z,7.54
2023-10-26T05:00:03.685Z,7.49
2023-10-26T05:05:11.417Z,7.48
2023-10-26T05:10:14.331Z,7.52
2023-10-26T05:15:17.347Z,7.56
2023-10-26T05:20:20.826Z,7.59
2023-10-26T05:25:23.617Z,7.62
2023-10-26T05:30:26.851Z,7.66
2023-10-26T05:35:29.791Z,7.73
2023-10-26T05:40:32.678Z,7.80
2023-10-26T05:45:41.325Z,7.90
2023-10-26T05:50:45.773Z,7.98
2023-10-26T05:55:59.616Z,8.07
2023-10-26T06:01:07.250Z,8.12
2023-10-26T06:06:11.168Z,8.11
2023-10-26T06:11:14.454Z,8.14
2023-10-26T06:16:17.492Z,8.20
2023-10-26T06:21:21.145Z,8.29
2023-10-26T06:26:26.847Z,8.39
2023-10-26T06:31:29.799Z,8.48
2023-10-26T06:36:32.844Z,8.53
2023-10-26T06:41:35.786Z,8.49
2023-10-26T06:46:38.756Z,8.62
2023-10-26T06:51:41.894Z,8.87
2023-10-26T06:56:45.541Z,9.10
2023-10-26T07:02:08.704Z,9.31
2023-10-26T07:07:11.200Z,9.54
2023-10-26T07:12:14.106Z,9.70
2023-10-26T07:17:17.003Z,9.85
2023-10-26T07:22:20.057Z,9.99
2023-10-26T07:27:24.722Z,10.02
2023-10-26T07:32:31.972Z,10.17
2023-10-26T07:37:35.169Z,10.34
2023-10-26T07:42:38.920Z,10.46
2023-10-26T07:47:42.001Z,10.56
2023-10-26T07:52:51.098Z,10.63
2023-10-26T07:57:55.287Z,10.57
2023-10-26T08:03:00.345Z,10.56
2023-10-26T08:08:04.248Z,10.72
2023-10-26T08:13:07.392Z,10.83
2023-10-26T08:18:10.475Z,10.83
2023-10-26T08:23:13.471Z,10.83
2023-10-26T08:28:23.131Z,10.83
2023-10-26T08:33:31.717Z,10.85
2023-10-26T08:38:35.372Z,10.85
2023-10-26T08:43:39.185Z,10.77
2023-10-26T08:48:45.618Z,10.66
2023-10-26T08:53:48.835Z,10.65
2023-10-26T08:58:58.628Z,10.67
2023-10-26T09:04:21.952Z,10.70
2023-10-26T09:09:25.319Z,10.74
2023-10-26T09:14:28.269Z,10.82
2023-10-26T09:19:39.853Z,10.84
2023-10-26T09:24:43.019Z,10.82
2023-10-26T09:29:48.406Z,10.81
2023-10-26T09:34:51.393Z,10.76
2023-10-26T09:40:12.138Z,10.85
2023-10-26T09:45:22.436Z,11.08
2023-10-26T09:50:25.599Z,11.12
2023-10-26T09:55:31.599Z,11.02
2023-10-26T10:00:36.062Z,11.01
2023-10-26T10:05:41.560Z,11.03
2023-10-26T10:11:17.166Z,11.11
2023-10-26T10:16:41.533Z,11.08
2023-10-26T10:21:45.318Z,10.93
2023-10-26T10:27:11.524Z,10.83
2023-10-26T10:32:43.920Z,10.74
2023-10-26T10:38:13.720Z,10.79
2023-10-26T10:43:16.809Z,10.86
2023-10-26T10:48:19.627Z,10.95
2023-10-26T10:53:25.521Z,10.98
2023-10-26T10:58:37.937Z,10.98
2023-10-26T11:03:41.006Z,11.00
2023-10-26T11:08:45.183Z,11.01
2023-10-26T11:13:48.500Z,11.00
2023-10-26T11:18:52.056Z,10.95
2023-10-26T11:23:58.023Z,10.90
2023-10-26T11:29:05.560Z,10.85
2023-10-26T11:34:10.840Z,10.93
2023-10-26T11:39:13.743Z,11.03
2023-10-26T11:44:38.868Z,11.05
2023-10-26T11:49:43.008Z,10.97
2023-10-26T11:54:53.892Z,10.85
2023-10-26T11:59:58.761Z,10.69
2023-10-26T12:05:04.256Z,10.61
2023-10-26T12:10:07.537Z,10.76
2023-10-26T12:15:13.112Z,10.91
2023-10-26T12:20:23.848Z,10.98
2023-10-26T12:25:26.681Z,11.01
2023-10-26T12:30:29.613Z,11.13
2023-10-26T12:35:33.720Z,11.23
2023-10-26T12:40:36.786Z,11.29
2023-10-26T12:45:40.649Z,11.43
2023-10-26T12:50:43.623Z,11.52
2023-10-26T12:55:46.548Z,11.56
2023-10-26T13:00:49.735Z,11.60
2023-10-26T13:05:53.151Z,11.62
2023-10-26T13:10:56.519Z,11.57
2023-10-26T13:15:59.485Z,11.38
2023-10-26T13:21:03.411Z,11.21
2023-10-26T13:26:06.725Z,11.12
2023-10-26T13:31:09.739Z,10.84
2023-10-26T13:36:13.179Z,10.56
2023-10-26T13:41:17.391Z,10.36
2023-10-26T13:46:20.318Z,10.19
2023-10-26T13:51:23.179Z,10.08
2023-10-26T13:56:26.534Z,9.97
2023-10-26T14:01:29.501Z,9.89
2023-10-26T14:06:32.534Z,9.83
2023-10-26T14:11:35.392Z,9.81
2023-10-26T14:16:38.332Z,9.76
2023-10-26T14:21:41.140Z,9.65
2023-10-26T14:26:46.370Z,9.60
2023-10-26T14:31:49.305Z,9.60
2023-10-26T14:36:52.800Z,9.59
2023-10-26T14:41:55.591Z,9.57
2023-10-26T14:46:58.988Z,9.60
2023-10-26T14:52:02.787Z,9.59
2023-10-26T14:57:05.858Z,9.57
2023-10-26T15:02:08.667Z,9.56
2023-10-26T15:07:11.594Z,9.50
2023-10-26T15:12:15.028Z,9.45
2023-10-26T15:17:20.393Z,9.39
2023-10-26T15:22:23.182Z,9.35
2023-10-26T15:27:25.992Z,9.35
2023-10-26T15:32:30.963Z,9.35
2023-10-26T15:37:34.558Z,9.32
2023-10-26T15:42:37.417Z,9.27
2023-10-26T15:47:40.637Z,9.18
2023-10-26T15:52:43.952Z,9.12
2023-10-26T15:57:46.875Z,9.10
2023-10-26T16:02:49.674Z,9.12
2023-10-26T16:07:52.540Z,9.17
2023-10-26T16:12:57.297Z,9.18
2023-10-26T16:18:02.125Z,9.20
2023-10-26T16:23:04.971Z,9.23
2023-10-26T16:28:12.179Z,9.22
2023-10-26T16:33:15.165Z,9.23
2023-10-26T16:38:17.914Z,9.20
2023-10-26T16:43:21.285Z,9.19
2023-10-26T16:48:25.616Z,9.19
2023-10-26T16:53:32.025Z,9.12
2023-10-26T16:58:35.773Z,9.02
2023-10-26T17:03:39.520Z,8.93
2023-10-26T17:08:42.451Z,8.92
2023-10-26T17:13:45.384Z,8.96
2023-10-26T17:18:48.195Z,8.98
2023-10-26T17:23:51.076Z,8.97
2023-10-26T17:28:57.723Z,8.98
2023-10-26T17:34:00.607Z,8.96
2023-10-26T17:39:04.090Z,8.92
2023-10-26T17:44:08.512Z,8.89
2023-10-26T17:49:11.485Z,8.88
2023-10-26T17:54:16.446Z,8.76
2023-10-26T17:59:20.461Z,8.73
2023-10-26T18:04:23.337Z,8.63
2023-10-26T18:09:30.516Z,8.55
2023-10-26T18:14:33.457Z,8.51
2023-10-26T18:19:36.326Z,8.51
2023-10-26T18:24:39.184Z,8.41
2023-10-26T18:29:43.110Z,8.28
2023-10-26T18:34:45.956Z,8.21
2023-10-26T18:39:49.654Z,8.20
2023-10-26T18:44:52.858Z,8.23
2023-10-26T18:49:55.683Z,8.27
2023-10-26T18:54:58.696Z,8.29
2023-10-26T19:00:02.400Z,8.27
2023-10-26T19:05:09.699Z,8.24
2023-10-26T19:10:13.705Z,8.21
2023-10-26T19:15:17.865Z,8.22
2023-10-26T19:20:21.943Z,8.22
2023-10-26T19:25:27.364Z,8.24
2023-10-26T19:30:30.929Z,8.30
2023-10-26T19:35:34.153Z,8.32
2023-10-26T19:40:37.029Z,8.32
2023-10-26T19:45:42.732Z,8.34
2023-10-26T19:50:45.619Z,8.31
2023-10-26T19:55:49.571Z,8.34
2023-10-26T20:00:53.586Z,8.40
2023-10-26T20:05:56.539Z,8.45
2023-10-26T20:10:59.380Z,8.43
2023-10-26T20:16:02.268Z,8.41
2023-10-26T20:21:05.448Z,8.49
2023-10-26T20:26:08.617Z,8.53
2023-10-26T20:31:11.611Z,8.47
2023-10-26T20:36:16.345Z,8.39
2023-10-26T20:41:20.306Z,8.37
2023-10-26T20:46:23.278Z,8.38
2023-10-26T20:51:27.298Z,8.43
2023-10-26T20:56:30.067Z,8.44
2023-10-26T21:01:32.871Z,8.46
2023-10-26T21:06:35.676Z,8.45
2023-10-26T21:11:38.429Z,8.45
2023-10-26T21:16:43.377Z,8.41
2023-10-26T21:21:46.311Z,8.39
2023-10-26T21:26:49.777Z,8.41
2023-10-26T21:31:52.626Z,8.44
2023-10-26T21:36:55.489Z,8.44
2023-10-26T21:41:58.404Z,8.45
2023-10-26T21:47:01.260Z,8.43
2023-10-26T21:52:05.516Z,8.41
2023-10-26T21:57:08.275Z,8.35
2023-10-26T22:02:11.176Z,8.25
2023-10-26T22:07:13.975Z,8.13
2023-10-26T22:12:16.721Z,8.04
2023-10-26T22:17:19.601Z,8.00
2023-10-26T22:22:22.609Z,7.89
2023-10-26T22:27:26.108Z,7.79
2023-10-26T22:32:32.359Z,7.71
2023-10-26T22:37:36.424Z,7.66
2023-10-26T22:42:39.577Z,7.60
2023-10-26T22:47:44.433Z,7.59
2023-10-26T22:52:47.308Z,7.61
2023-10-26T22:57:50.360Z,7.66
2023-10-26T23:02:53.414Z,7.68
2023-10-26T23:07:56.471Z,7.68
2023-10-26T23:12:59.284Z,7.58
2023-10-26T23:18:02.177Z,7.46
2023-10-26T23:23:05.006Z,7.47
2023-10-26T23:28:07.818Z,7.51
2023-10-26T23:33:10.642Z,7.53
2023-10-26T23:38:14.582Z,7.47
2023-10-26T23:43:17.535Z,7.24
2023-10-26T23:48:20.454Z,7.12
2023-10-26T23:53:23.573Z,7.09
2023-10-26T23:58:26.434Z,7.08
